createdAt,value
2016-11-25T00:00:02.096Z,0
2016-11-25T00:01:12.155Z,0
2016-11-25T00:02:22.188Z,0
2016-11-25T00:03:32.208Z,0
2016-11-25T00:04:42.554Z,0
2016-11-25T00:05:52.894Z,0
2016-11-25T00:07:03.240Z,0
2016-11-25T00:08:13.275Z,0
2016-11-25T00:09:23.641Z,0
2016-11-25T00:10:33.973Z,0
2016-11-25T00:11:44.001Z,0
2016-11-25T00:12:54.050Z,0
2016-11-25T00:14:04.432Z,0
2016-11-25T00:15:14.454Z,0
2016-11-25T00:16:24.186Z,0
2016-11-25T00:17:33.927Z,0
2016-11-25T00:18:44.266Z,0
2016-11-25T00:19:53.991Z,0
2016-11-25T00:21:04.009Z,0
2016-11-25T00:22:14.349Z,0
2016-11-25T00:23:24.381Z,0
2016-11-25T00:24:34.710Z,0
2016-11-25T00:25:45.064Z,0
2016-11-25T00:26:55.136Z,0
2016-11-25T00:28:05.154Z,0
2016-11-25T00:29:15.513Z,0
2016-11-25T00:30:25.531Z,0
2016-11-25T00:31:35.557Z,0
2016-11-25T00:32:45.570Z,0
2016-11-25T00:33:55.902Z,0
2016-11-25T00:35:06.246Z,0
2016-11-25T00:36:15.970Z,0
2016-11-25T00:37:25.673Z,0
2016-11-25T00:38:35.396Z,0
2016-11-25T00:39:45.770Z,0
2016-11-25T00:40:55.794Z,0
2016-11-25T00:42:05.832Z,0
2016-11-25T00:43:15.850Z,0
2016-11-25T00:44:25.879Z,0
2016-11-25T00:45:36.224Z,0
2016-11-25T00:46:46.564Z,0
2016-11-25T00:47:56.948Z,0
2016-11-25T00:49:06.958Z,0
2016-11-25T00:50:16.982Z,0
2016-11-25T00:51:27.046Z,0
2016-11-25T00:52:36.768Z,0
2016-11-25T00:53:47.111Z,0
2016-11-25T00:54:57.162Z,0
2016-11-25T00:56:07.528Z,0
2016-11-25T00:57:17.245Z,0
2016-11-25T00:58:27.582Z,0
2016-11-25T00:59:37.609Z,0
2016-11-25T01:00:47.971Z,0
2016-11-25T01:01:58.006Z,0
2016-11-25T01:03:08.344Z,0
2016-11-25T01:04:18.694Z,0
2016-11-25T01:05:28.416Z,0
2016-11-25T01:06:38.439Z,0
2016-11-25T01:07:48.160Z,0
2016-11-25T01:08:58.507Z,0
2016-11-25T01:10:08.525Z,0
2016-11-25T01:11:18.545Z,0
2016-11-25T01:12:28.892Z,0
2016-11-25T01:13:38.909Z,0
2016-11-25T01:14:49.255Z,0
2016-11-25T01:15:59.593Z,0
2016-11-25T01:17:09.933Z,0
2016-11-25T01:18:19.952Z,0
2016-11-25T01:19:30.279Z,0
2016-11-25T01:20:40.316Z,0
2016-11-25T01:21:50.363Z,0
2016-11-25T01:23:00.387Z,0
2016-11-25T01:24:10.401Z,0
2016-11-25T01:25:20.422Z,0
2016-11-25T01:26:30.773Z,0
2016-11-25T01:27:40.169Z,0
2016-11-25T01:28:50.196Z,0
2016-11-25T01:29:59.908Z,0
2016-11-25T01:31:09.928Z,0
2016-11-25T01:32:19.636Z,0
2016-11-25T01:33:29.340Z,0
2016-11-25T01:34:39.045Z,0
2016-11-25T01:35:49.374Z,0
2016-11-25T01:36:59.407Z,0
2016-11-25T01:38:09.460Z,0
2016-11-25T01:39:19.491Z,0
2016-11-25T01:40:29.829Z,0
2016-11-25T01:41:40.183Z,0
2016-11-25T01:42:50.522Z,0
2016-11-25T01:44:00.545Z,0
2016-11-25T01:45:10.879Z,0
2016-11-25T01:46:21.220Z,0
2016-11-25T01:47:31.237Z,0
2016-11-25T01:48:41.254Z,0
2016-11-25T01:49:50.981Z,0
2016-11-25T01:51:01.022Z,0
2016-11-25T01:52:10.745Z,0
2016-11-25T01:53:21.076Z,0
2016-11-25T01:54:31.097Z,0
2016-11-25T01:55:41.444Z,0
2016-11-25T01:56:51.782Z,0
2016-11-25T01:58:02.148Z,0
2016-11-25T01:59:12.174Z,0
2016-11-25T02:00:22.507Z,0
2016-11-25T02:01:32.872Z,0
2016-11-25T02:02:42.885Z,0
2016-11-25T02:03:52.920Z,0
2016-11-25T02:05:02.948Z,0
2016-11-25T02:06:12.959Z,0
2016-11-25T02:07:22.976Z,0
2016-11-25T02:08:32.698Z,0
2016-11-25T02:09:43.070Z,0
2016-11-25T02:10:53.422Z,0
2016-11-25T02:12:03.758Z,0
2016-11-25T02:13:13.804Z,0
2016-11-25T02:14:24.136Z,0
2016-11-25T02:15:34.477Z,0
2016-11-25T02:16:44.809Z,0
2016-11-25T02:17:55.171Z,0
2016-11-25T02:19:04.893Z,0
2016-11-25T02:20:14.924Z,0
2016-11-25T02:21:24.948Z,0
2016-11-25T02:22:35.289Z,0
2016-11-25T02:23:45.310Z,0
2016-11-25T02:24:55.328Z,0
2016-11-25T02:26:05.036Z,0
2016-11-25T02:27:15.070Z,0
2016-11-25T02:28:25.086Z,0
2016-11-25T02:29:35.118Z,0
2016-11-25T02:30:45.145Z,0
2016-11-25T02:31:54.866Z,0
2016-11-25T02:33:05.202Z,0
2016-11-25T02:34:15.239Z,0
2016-11-25T02:35:24.981Z,0
2016-11-25T02:36:35.319Z,0
2016-11-25T02:37:45.041Z,0
2016-11-25T02:38:55.372Z,0
2016-11-25T02:40:05.404Z,0
2016-11-25T02:41:15.729Z,0
2016-11-25T02:42:26.066Z,0
2016-11-25T02:43:36.407Z,0
2016-11-25T02:44:46.456Z,0
2016-11-25T02:45:56.781Z,0
2016-11-25T02:47:06.797Z,0
2016-11-25T02:48:17.137Z,0
2016-11-25T02:49:26.861Z,0
2016-11-25T02:50:37.189Z,0
2016-11-25T02:51:47.209Z,0
2016-11-25T02:52:56.933Z,0
2016-11-25T02:54:07.315Z,0
2016-11-25T02:55:17.651Z,0
2016-11-25T02:56:27.990Z,0
2016-11-25T02:57:37.378Z,0
2016-11-25T02:58:47.417Z,0
2016-11-25T02:59:57.123Z,0
2016-11-25T03:32:22.540Z,0
2016-11-25T03:33:32.547Z,0
2016-11-25T03:34:42.887Z,0
2016-11-25T03:35:52.890Z,0
2016-11-25T03:37:02.632Z,0
2016-11-25T03:38:12.659Z,0
2016-11-25T03:39:22.989Z,0
2016-11-25T03:40:33.008Z,0
2016-11-25T03:41:43.040Z,0
2016-11-25T03:42:53.069Z,0
2016-11-25T03:44:03.101Z,0
2016-11-25T03:45:13.140Z,0
2016-11-25T03:46:22.865Z,0
2016-11-25T03:47:33.238Z,0
2016-11-25T03:48:43.265Z,0
2016-11-25T03:49:52.679Z,0
2016-11-25T03:51:03.036Z,0
2016-11-25T03:52:12.745Z,0
2016-11-25T03:53:23.090Z,0
2016-11-25T03:54:32.797Z,0
2016-11-25T03:55:43.118Z,0
2016-11-25T03:56:53.450Z,0
2016-11-25T03:58:03.788Z,0
2016-11-25T03:59:13.835Z,0
2016-11-25T04:00:24.173Z,0
2016-11-25T04:01:34.212Z,0
2016-11-25T04:02:44.244Z,0
2016-11-25T04:03:54.620Z,0
2016-11-25T04:05:04.987Z,0
2016-11-25T04:06:15.010Z,0
2016-11-25T04:07:25.357Z,0
2016-11-25T04:08:35.697Z,0
2016-11-25T04:09:45.720Z,0
2016-11-25T04:10:56.060Z,0
2016-11-25T04:12:05.812Z,0
2016-11-25T04:13:15.841Z,0
2016-11-25T04:14:26.182Z,0
2016-11-25T04:15:36.514Z,0
2016-11-25T04:16:46.539Z,0
2016-11-25T04:17:56.553Z,0
2016-11-25T04:19:05.958Z,0
2016-11-25T04:20:15.991Z,0
2016-11-25T04:21:26.026Z,0
2016-11-25T04:22:36.353Z,0
2016-11-25T04:23:45.755Z,0
2016-11-25T04:24:55.470Z,0
2016-11-25T04:26:05.488Z,0
2016-11-25T04:27:15.525Z,0
2016-11-25T04:28:25.541Z,0
2016-11-25T04:29:35.597Z,0
2016-11-25T04:30:45.930Z,0
2016-11-25T04:31:56.272Z,0
2016-11-25T04:33:06.287Z,0
2016-11-25T04:34:15.379Z,0
2016-11-25T04:35:25.706Z,0
2016-11-25T04:36:35.438Z,0
2016-11-25T04:37:44.827Z,0
2016-11-25T04:38:55.178Z,0
2016-11-25T04:40:05.199Z,0
2016-11-25T04:41:15.231Z,0
2016-11-25T04:42:25.564Z,0
2016-11-25T04:43:35.600Z,0
2016-11-25T04:44:45.955Z,0
2016-11-25T04:45:55.669Z,0
2016-11-25T04:47:06.005Z,0
2016-11-25T04:48:16.339Z,0
2016-11-25T04:49:26.360Z,0
2016-11-25T04:50:36.071Z,0
2016-11-25T04:51:46.411Z,0
2016-11-25T04:52:56.762Z,0
2016-11-25T04:54:07.090Z,0
2016-11-25T04:55:17.109Z,0
2016-11-25T04:56:27.142Z,0
2016-11-25T04:57:37.479Z,0
2016-11-25T04:58:47.499Z,0
2016-11-25T04:59:57.519Z,0
2016-11-25T05:01:07.846Z,0
2016-11-25T05:02:17.867Z,0
2016-11-25T05:03:28.198Z,0
2016-11-25T05:04:38.233Z,0
2016-11-25T05:05:48.261Z,0
2016-11-25T05:06:58.600Z,0
2016-11-25T05:08:08.628Z,0
2016-11-25T05:09:18.898Z,0
2016-11-25T05:10:28.929Z,0
2016-11-25T05:11:39.286Z,0
2016-11-25T05:12:49.317Z,0
2016-11-25T05:13:59.664Z,0
2016-11-25T05:15:10.008Z,0
2016-11-25T05:16:19.422Z,0
2016-11-25T05:17:29.438Z,0
2016-11-25T05:18:39.771Z,0
2016-11-25T05:19:49.797Z,0
2016-11-25T05:21:00.123Z,0
2016-11-25T05:22:10.470Z,0
2016-11-25T05:23:20.186Z,0
2016-11-25T05:24:30.554Z,0
2016-11-25T05:25:40.590Z,0
2016-11-25T05:26:50.329Z,0
2016-11-25T05:28:00.670Z,0
2016-11-25T05:29:11.041Z,0
2016-11-25T05:30:21.372Z,0
2016-11-25T05:31:31.089Z,0
2016-11-25T05:32:41.431Z,0
2016-11-25T05:33:51.469Z,0
2016-11-25T05:35:00.879Z,0
2016-11-25T05:36:10.936Z,0
2016-11-25T05:37:20.959Z,0
2016-11-25T05:38:30.672Z,0
2016-11-25T05:39:41.010Z,0
2016-11-25T05:40:51.338Z,0
2016-11-25T05:42:01.697Z,0
2016-11-25T05:43:11.717Z,0
2016-11-25T05:44:21.749Z,0
2016-11-25T05:45:31.774Z,0
2016-11-25T05:46:42.341Z,0
2016-11-25T05:47:52.059Z,0
2016-11-25T05:49:02.389Z,0
2016-11-25T05:50:12.111Z,0
2016-11-25T05:51:22.123Z,0
2016-11-25T05:52:32.476Z,0
2016-11-25T05:53:42.817Z,0
2016-11-25T05:54:52.848Z,0
2016-11-25T05:56:02.875Z,0
2016-11-25T05:57:12.266Z,0
2016-11-25T05:58:22.594Z,0
2016-11-25T05:59:32.925Z,0
2016-11-25T06:00:42.934Z,0
2016-11-25T06:01:52.973Z,0
2016-11-25T06:03:02.705Z,0
2016-11-25T06:04:13.054Z,0
2016-11-25T06:05:23.407Z,0
2016-11-25T06:06:33.740Z,0
2016-11-25T06:07:43.783Z,0
2016-11-25T06:08:53.810Z,0
2016-11-25T06:10:04.156Z,0
2016-11-25T06:11:13.878Z,0
2016-11-25T06:12:23.894Z,0
2016-11-25T06:13:33.911Z,0
2016-11-25T06:14:44.254Z,0
2016-11-25T06:15:54.289Z,0
2016-11-25T06:17:03.996Z,0
2016-11-25T06:18:14.018Z,0
2016-11-25T06:19:24.359Z,0
2016-11-25T06:20:34.384Z,0
2016-11-25T06:21:44.722Z,0
2016-11-25T06:22:55.055Z,0
2016-11-25T06:24:05.066Z,0
2016-11-25T06:25:15.089Z,0
2016-11-25T06:26:24.490Z,0
2016-11-25T06:27:34.201Z,0
2016-11-25T06:28:44.257Z,0
2016-11-25T06:29:54.603Z,0
2016-11-25T06:31:04.312Z,0
2016-11-25T06:32:14.027Z,0
2016-11-25T06:33:24.056Z,0
2016-11-25T06:34:34.076Z,0
2016-11-25T06:35:44.417Z,0
2016-11-25T06:36:54.179Z,0
2016-11-25T06:38:04.507Z,0
2016-11-25T06:39:14.540Z,0
2016-11-25T06:40:24.561Z,0
2016-11-25T06:41:33.976Z,0
2016-11-25T06:42:44.324Z,0
2016-11-25T06:43:54.350Z,0
2016-11-25T06:45:03.747Z,0
2016-11-25T06:46:14.073Z,0
2016-11-25T06:47:23.790Z,0
2016-11-25T06:48:33.807Z,0
2016-11-25T06:49:43.839Z,0
2016-11-25T06:50:53.846Z,0
2016-11-25T06:52:03.876Z,5
2016-11-25T06:53:14.228Z,5
2016-11-25T06:54:24.266Z,5
2016-11-25T06:55:33.989Z,5
2016-11-25T06:56:44.344Z,5
2016-11-25T06:57:54.371Z,5
2016-11-25T06:59:04.767Z,5
2016-11-25T07:00:15.118Z,5
2016-11-25T07:01:25.467Z,5
2016-11-25T07:02:35.824Z,5
2016-11-25T07:03:45.539Z,5
2016-11-25T07:04:55.566Z,5
2016-11-25T07:06:05.908Z,5
2016-11-25T07:07:15.943Z,5
2016-11-25T07:08:25.966Z,5
2016-11-25T07:09:35.989Z,5
2016-11-25T07:10:45.715Z,10
2016-11-25T07:11:56.066Z,10
2016-11-25T07:13:05.779Z,10
2016-11-25T07:14:16.109Z,5
2016-11-25T07:15:26.456Z,5
2016-11-25T07:16:36.775Z,10
2016-11-25T07:17:46.484Z,10
2016-11-25T07:18:56.510Z,10
2016-11-25T07:20:06.849Z,10
2016-11-25T07:21:16.564Z,10
2016-11-25T07:22:26.893Z,10
2016-11-25T07:23:36.932Z,10
2016-11-25T07:24:47.266Z,10
2016-11-25T07:25:57.612Z,10
2016-11-25T07:27:07.314Z,10
2016-11-25T07:28:17.328Z,10
2016-11-25T07:29:26.722Z,10
2016-11-25T07:30:37.070Z,10
2016-11-25T07:31:47.100Z,10
2016-11-25T07:32:57.128Z,10
2016-11-25T07:34:07.204Z,10
2016-11-25T07:35:17.551Z,10
2016-11-25T07:36:27.892Z,10
2016-11-25T07:37:38.281Z,5
2016-11-25T07:38:48.615Z,5
2016-11-25T07:39:58.327Z,10
2016-11-25T07:41:08.353Z,10
2016-11-25T07:42:18.380Z,10
2016-11-25T07:43:28.724Z,10
2016-11-25T07:44:38.131Z,15
2016-11-25T07:45:47.850Z,15
2016-11-25T07:46:58.207Z,15
2016-11-25T07:48:08.547Z,15
2016-11-25T07:49:18.890Z,15
2016-11-25T07:50:29.261Z,15
2016-11-25T07:51:39.599Z,15
2016-11-25T07:52:49.301Z,15
2016-11-25T07:53:59.655Z,15
2016-11-25T07:55:09.713Z,15
2016-11-25T07:56:20.111Z,15
2016-11-25T07:57:29.827Z,15
2016-11-25T07:58:40.183Z,20
2016-11-25T07:59:50.520Z,20
2016-11-25T08:01:00.872Z,20
2016-11-25T08:02:11.204Z,20
2016-11-25T08:03:21.240Z,15
2016-11-25T08:04:30.958Z,15
2016-11-25T08:05:41.294Z,15
2016-11-25T08:06:51.305Z,15
2016-11-25T08:08:01.652Z,15
2016-11-25T08:09:11.991Z,15
2016-11-25T08:10:22.020Z,15
2016-11-25T08:11:31.744Z,15
2016-11-25T08:12:42.080Z,15
2016-11-25T08:13:52.416Z,15
2016-11-25T08:15:02.737Z,15
2016-11-25T08:16:12.769Z,15
2016-11-25T08:17:23.092Z,15
2016-11-25T08:18:33.438Z,15
2016-11-25T08:19:43.769Z,15
2016-11-25T08:20:54.115Z,15
2016-11-25T08:22:03.526Z,15
2016-11-25T08:23:13.534Z,15
2016-11-25T08:24:23.875Z,15
2016-11-25T08:25:34.193Z,15
2016-11-25T08:26:44.206Z,15
2016-11-25T08:27:54.240Z,15
2016-11-25T08:29:04.563Z,15
2016-11-25T08:30:14.935Z,10
2016-11-25T08:31:24.645Z,10
2016-11-25T08:32:34.722Z,10
2016-11-25T08:33:44.764Z,10
2016-11-25T08:34:55.114Z,10
2016-11-25T08:36:05.148Z,15
2016-11-25T08:37:15.479Z,15
2016-11-25T08:38:25.736Z,15
2016-11-25T08:39:36.081Z,15
2016-11-25T08:40:45.837Z,15
2016-11-25T08:41:56.176Z,15
2016-11-25T08:43:06.217Z,20
2016-11-25T08:44:16.574Z,25
2016-11-25T08:45:26.914Z,30
2016-11-25T08:46:36.627Z,30
2016-11-25T08:47:46.965Z,30
2016-11-25T08:48:56.666Z,30
2016-11-25T08:50:07.008Z,30
2016-11-25T08:51:17.047Z,30
2016-11-25T08:52:27.072Z,25
2016-11-25T08:53:37.413Z,25
2016-11-25T08:54:47.136Z,25
2016-11-25T08:56:05.361Z,25
2016-11-25T08:57:15.697Z,30
2016-11-25T08:58:25.734Z,30
2016-11-25T08:59:35.455Z,35
2016-11-25T09:00:45.787Z,35
2016-11-25T09:01:55.821Z,30
2016-11-25T09:03:06.165Z,30
2016-11-25T09:04:16.558Z,30
2016-11-25T09:05:26.888Z,25
2016-11-25T09:06:37.221Z,25
2016-11-25T09:07:46.927Z,25
2016-11-25T09:08:56.958Z,25
2016-11-25T09:10:06.985Z,20
2016-11-25T09:11:16.997Z,20
2016-11-25T09:12:27.006Z,20
2016-11-25T09:13:37.341Z,25
2016-11-25T09:14:47.692Z,25
2016-11-25T09:15:57.714Z,25
2016-11-25T09:17:08.046Z,25
2016-11-25T09:18:18.082Z,25
2016-11-25T09:19:28.409Z,25
2016-11-25T09:20:38.443Z,25
2016-11-25T09:21:48.803Z,25
2016-11-25T09:22:59.133Z,25
2016-11-25T09:24:08.857Z,30
2016-11-25T09:25:19.187Z,30
2016-11-25T09:26:29.525Z,30
2016-11-25T09:27:39.542Z,30
2016-11-25T09:28:49.558Z,30
2016-11-25T09:29:59.270Z,25
2016-11-25T09:31:09.307Z,30
2016-11-25T09:32:19.344Z,35
2016-11-25T09:33:29.055Z,40
2016-11-25T09:34:39.091Z,40
2016-11-25T09:35:48.812Z,35
2016-11-25T09:36:58.835Z,25
2016-11-25T09:38:08.905Z,20
2016-11-25T09:39:19.244Z,20
2016-11-25T09:40:28.959Z,20
2016-11-25T09:41:39.282Z,20
2016-11-25T09:42:49.299Z,20
2016-11-25T09:43:59.860Z,20
2016-11-25T09:45:10.195Z,20
2016-11-25T09:46:20.526Z,20
2016-11-25T09:47:30.593Z,20
2016-11-25T09:48:40.617Z,20
2016-11-25T09:49:50.648Z,20
2016-11-25T09:51:00.679Z,25
2016-11-25T09:52:10.397Z,25
2016-11-25T09:53:20.118Z,30
2016-11-25T09:54:29.860Z,30
2016-11-25T09:55:40.197Z,30
2016-11-25T09:56:49.889Z,30
2016-11-25T09:58:00.260Z,30
2016-11-25T09:59:10.296Z,30
2016-11-25T10:00:20.629Z,30
2016-11-25T10:01:30.956Z,35
2016-11-25T10:02:40.673Z,35
2016-11-25T10:03:50.384Z,35
2016-11-25T10:05:00.415Z,35
2016-11-25T10:06:10.779Z,30
2016-11-25T10:07:21.138Z,25
2016-11-25T10:08:31.500Z,25
2016-11-25T10:09:41.537Z,20
2016-11-25T10:10:51.580Z,20
2016-11-25T10:12:01.925Z,20
2016-11-25T10:13:11.943Z,20
2016-11-25T10:14:21.964Z,25
2016-11-25T10:15:31.982Z,30
2016-11-25T10:16:42.012Z,35
2016-11-25T10:17:52.029Z,35
2016-11-25T10:19:01.736Z,35
2016-11-25T10:20:12.087Z,35
2016-11-25T10:21:22.429Z,35
2016-11-25T10:22:32.456Z,30
2016-11-25T10:23:42.812Z,30
2016-11-25T10:24:53.140Z,30
2016-11-25T10:26:03.487Z,30
2016-11-25T10:27:13.227Z,30
2016-11-25T10:28:23.570Z,30
2016-11-25T10:29:33.897Z,35
2016-11-25T10:30:44.249Z,35
2016-11-25T10:31:54.815Z,35
2016-11-25T10:33:04.838Z,30
2016-11-25T10:34:15.178Z,20
2016-11-25T10:35:25.520Z,20
2016-11-25T10:36:35.241Z,15
2016-11-25T10:37:45.274Z,15
2016-11-25T10:38:55.642Z,15
2016-11-25T10:40:05.674Z,20
2016-11-25T10:41:16.018Z,20
2016-11-25T10:42:26.041Z,20
2016-11-25T10:43:36.054Z,25
2016-11-25T10:44:46.085Z,30
2016-11-25T10:45:55.811Z,35
2016-11-25T10:47:05.832Z,35
2016-11-25T10:48:15.870Z,40
2016-11-25T10:49:26.238Z,35
2016-11-25T10:50:36.292Z,35
2016-11-25T10:51:46.329Z,35
2016-11-25T10:52:56.356Z,35
2016-11-25T10:54:06.693Z,35
2016-11-25T10:55:16.419Z,35
2016-11-25T10:56:26.128Z,40
2016-11-25T10:57:36.473Z,45
2016-11-25T10:58:46.810Z,50
2016-11-25T10:59:56.851Z,50
2016-11-25T11:01:07.192Z,50
2016-11-25T11:02:17.219Z,45
2016-11-25T11:03:27.561Z,40
2016-11-25T11:04:37.284Z,40
2016-11-25T11:05:47.295Z,35
2016-11-25T11:06:57.622Z,35
2016-11-25T11:08:07.329Z,30
2016-11-25T11:09:17.365Z,30
2016-11-25T11:10:27.386Z,35
2016-11-25T11:11:37.123Z,35
2016-11-25T11:12:46.845Z,35
2016-11-25T11:13:57.199Z,35
2016-11-25T11:15:06.923Z,35
2016-11-25T11:16:17.261Z,35
2016-11-25T11:17:27.283Z,35
2016-11-25T11:18:37.619Z,40
2016-11-25T11:19:47.970Z,40
2016-11-25T11:20:58.033Z,40
2016-11-25T11:22:08.384Z,40
2016-11-25T11:23:18.406Z,40
2016-11-25T11:24:28.443Z,45
2016-11-25T11:25:38.151Z,50
2016-11-25T11:26:48.488Z,55
2016-11-25T11:27:58.819Z,55
2016-11-25T11:29:08.544Z,50
2016-11-25T11:30:18.577Z,50
2016-11-25T11:31:28.969Z,45
2016-11-25T11:32:39.301Z,45
2016-11-25T11:33:49.020Z,45
2016-11-25T11:34:59.363Z,45
2016-11-25T11:36:09.435Z,45
2016-11-25T11:37:19.462Z,45
2016-11-25T11:38:29.798Z,45
2016-11-25T11:39:40.126Z,45
2016-11-25T11:40:49.853Z,45
2016-11-25T11:42:00.229Z,45
2016-11-25T11:43:10.266Z,45
2016-11-25T11:44:20.609Z,45
2016-11-25T11:45:30.948Z,40
2016-11-25T11:46:40.967Z,40
2016-11-25T11:47:51.298Z,40
2016-11-25T11:49:01.005Z,40
2016-11-25T11:50:11.344Z,40
2016-11-25T11:51:20.451Z,40
2016-11-25T11:52:30.543Z,40
2016-11-25T11:53:40.565Z,40
2016-11-25T11:54:50.628Z,35
2016-11-25T11:56:00.661Z,35
2016-11-25T11:57:11.005Z,30
2016-11-25T11:58:20.720Z,30
2016-11-25T11:59:30.741Z,30
2016-11-25T12:00:40.762Z,25
2016-11-25T12:01:50.790Z,25
2016-11-25T12:03:00.811Z,25
2016-11-25T12:04:10.840Z,25
2016-11-25T12:05:21.169Z,25
2016-11-25T12:06:31.526Z,25
2016-11-25T12:07:41.873Z,20
2016-11-25T12:08:51.914Z,20
2016-11-25T12:10:02.262Z,20
2016-11-25T12:11:12.613Z,20
2016-11-25T12:12:22.639Z,20
2016-11-25T12:13:33.025Z,20
2016-11-25T12:14:43.060Z,20
2016-11-25T12:15:53.415Z,15
2016-11-25T12:17:03.754Z,15
2016-11-25T12:18:13.782Z,20
2016-11-25T12:19:24.121Z,20
2016-11-25T12:20:33.838Z,20
2016-11-25T12:21:43.862Z,20
2016-11-25T12:22:53.579Z,20
2016-11-25T12:24:03.597Z,20
2016-11-25T12:25:13.643Z,20
2016-11-25T12:26:23.970Z,20
2016-11-25T12:27:34.312Z,20
2016-11-25T12:28:44.654Z,20
2016-11-25T12:29:54.987Z,20
2016-11-25T12:31:05.015Z,20
2016-11-25T12:32:15.356Z,25
2016-11-25T12:33:25.700Z,25
2016-11-25T12:34:36.035Z,25
2016-11-25T12:35:46.358Z,20
2016-11-25T12:36:56.090Z,20
2016-11-25T12:38:06.121Z,20
2016-11-25T12:39:16.464Z,25
2016-11-25T12:40:26.532Z,25
2016-11-25T12:41:36.592Z,25
2016-11-25T12:42:46.925Z,25
2016-11-25T12:43:57.278Z,30
2016-11-25T12:45:07.657Z,25
2016-11-25T12:46:17.996Z,25
2016-11-25T12:47:28.351Z,25
2016-11-25T12:48:38.689Z,25
2016-11-25T12:49:49.039Z,20
2016-11-25T12:50:59.073Z,20
2016-11-25T12:52:09.419Z,20
2016-11-25T12:53:19.446Z,20
2016-11-25T12:54:29.806Z,20
2016-11-25T12:55:40.156Z,20
2016-11-25T12:56:50.486Z,20
2016-11-25T12:58:00.507Z,25
2016-11-25T12:59:10.543Z,25
2016-11-25T13:00:20.574Z,25
2016-11-25T13:01:30.906Z,25
2016-11-25T13:02:40.629Z,25
2016-11-25T13:03:50.975Z,25
2016-11-25T13:05:01.011Z,25
2016-11-25T13:06:11.053Z,25
2016-11-25T13:07:21.394Z,25
2016-11-25T13:08:31.430Z,20
2016-11-25T13:09:41.457Z,15
2016-11-25T13:10:51.797Z,15
2016-11-25T13:12:02.139Z,15
2016-11-25T13:13:11.844Z,15
2016-11-25T13:14:22.206Z,15
2016-11-25T13:15:32.577Z,15
2016-11-25T13:16:42.928Z,15
2016-11-25T13:17:53.274Z,15
2016-11-25T13:19:03.300Z,10
2016-11-25T13:20:13.327Z,10
2016-11-25T13:21:23.649Z,10
2016-11-25T13:22:33.706Z,10
2016-11-25T13:23:44.064Z,10
2016-11-25T13:24:54.074Z,10
2016-11-25T13:26:03.790Z,10
2016-11-25T13:27:13.508Z,10
2016-11-25T13:28:23.854Z,10
2016-11-25T13:29:33.881Z,10
2016-11-25T13:30:43.588Z,15
2016-11-25T13:31:53.937Z,15
2016-11-25T13:33:03.977Z,15
2016-11-25T13:34:13.998Z,15
2016-11-25T13:35:24.005Z,15
2016-11-25T13:36:34.347Z,20
2016-11-25T13:37:44.386Z,20
2016-11-25T13:38:54.409Z,15
2016-11-25T13:40:04.476Z,15
2016-11-25T13:41:14.526Z,15
2016-11-25T13:42:24.233Z,15
2016-11-25T13:43:34.312Z,15
2016-11-25T13:44:44.648Z,15
2016-11-25T13:45:55.920Z,15
2016-11-25T13:47:04.996Z,10
2016-11-25T13:48:15.023Z,10
2016-11-25T13:49:25.364Z,10
2016-11-25T13:50:35.383Z,10
2016-11-25T13:51:45.729Z,10
2016-11-25T13:52:55.755Z,10
2016-11-25T13:54:05.167Z,10
2016-11-25T13:55:15.501Z,10
2016-11-25T13:56:25.219Z,10
2016-11-25T13:57:35.241Z,10
2016-11-25T13:58:45.592Z,10
2016-11-25T13:59:55.627Z,10
2016-11-25T14:01:05.977Z,10
2016-11-25T14:02:16.405Z,5
2016-11-25T14:03:26.124Z,5
2016-11-25T14:04:36.471Z,5
2016-11-25T14:05:46.554Z,5
2016-11-25T14:06:56.889Z,5
2016-11-25T14:08:06.925Z,5
2016-11-25T14:09:17.014Z,5
2016-11-25T14:10:27.044Z,5
2016-11-25T14:11:37.073Z,5
2016-11-25T14:12:47.421Z,5
2016-11-25T14:13:57.460Z,5
2016-11-25T14:15:07.821Z,5
2016-11-25T14:16:18.164Z,5
2016-11-25T14:17:28.193Z,5
2016-11-25T14:18:38.768Z,5
2016-11-25T14:19:49.108Z,5
2016-11-25T14:20:59.139Z,0
2016-11-25T14:22:09.476Z,0
2016-11-25T14:23:18.892Z,0
2016-11-25T14:24:29.249Z,0
2016-11-25T14:25:39.606Z,0
2016-11-25T14:26:49.005Z,0
2016-11-25T14:27:59.350Z,0
2016-11-25T14:29:09.681Z,0
2016-11-25T14:30:19.398Z,0
2016-11-25T14:31:29.405Z,0
2016-11-25T14:32:39.416Z,0
2016-11-25T14:33:49.501Z,0
2016-11-25T14:34:59.337Z,0
2016-11-25T14:36:09.377Z,0
2016-11-25T14:37:19.733Z,0
2016-11-25T14:38:30.075Z,0
2016-11-25T14:39:40.436Z,0
2016-11-25T14:40:50.781Z,0
2016-11-25T14:42:00.839Z,0
2016-11-25T14:43:10.571Z,0
2016-11-25T14:44:20.233Z,0
2016-11-25T14:45:30.044Z,0
2016-11-25T14:46:40.091Z,0
2016-11-25T14:47:50.127Z,0
2016-11-25T14:49:00.480Z,0
2016-11-25T14:50:10.867Z,0
2016-11-25T14:51:20.911Z,0
2016-11-25T14:52:30.732Z,0
2016-11-25T14:53:41.082Z,0
2016-11-25T14:54:51.423Z,0
2016-11-25T14:56:01.522Z,0
2016-11-25T14:57:11.342Z,0
2016-11-25T14:58:21.437Z,0
2016-11-25T14:59:31.765Z,0
2016-11-25T15:00:41.871Z,0
2016-11-25T15:01:52.290Z,0
2016-11-25T15:03:02.060Z,0
2016-11-25T15:04:12.452Z,0
2016-11-25T15:05:22.523Z,0
2016-11-25T15:06:32.624Z,0
2016-11-25T15:07:43.012Z,0
2016-11-25T15:08:53.414Z,0
2016-11-25T15:10:03.459Z,0
2016-11-25T15:11:13.912Z,0
2016-11-25T15:12:24.269Z,0
2016-11-25T15:13:34.305Z,0
2016-11-25T15:14:44.347Z,0
2016-11-25T15:15:54.418Z,0
2016-11-25T15:17:04.436Z,0
2016-11-25T15:18:14.831Z,0
2016-11-25T15:19:24.540Z,0
2016-11-25T15:20:34.565Z,0
2016-11-25T15:21:44.944Z,0
2016-11-25T15:22:55.007Z,0
2016-11-25T15:24:05.069Z,0
2016-11-25T15:25:14.787Z,0
2016-11-25T15:26:25.148Z,0
2016-11-25T15:27:35.244Z,0
2016-11-25T15:28:45.266Z,0
2016-11-25T15:29:54.999Z,0
2016-11-25T15:31:05.055Z,0
2016-11-25T15:32:15.433Z,0
2016-11-25T15:33:25.143Z,0
2016-11-25T15:34:35.492Z,0
2016-11-25T15:35:45.885Z,0
2016-11-25T15:36:55.918Z,0
2016-11-25T15:38:05.941Z,0
2016-11-25T15:39:16.298Z,0
2016-11-25T15:40:26.643Z,0
2016-11-25T15:41:36.674Z,0
2016-11-25T15:42:46.085Z,0
2016-11-25T15:43:56.104Z,0
2016-11-25T15:45:06.146Z,0
2016-11-25T15:46:15.873Z,0
2016-11-25T15:47:26.233Z,0
2016-11-25T15:48:36.289Z,0
2016-11-25T15:49:46.666Z,0
2016-11-25T15:50:56.683Z,0
2016-11-25T15:52:06.739Z,0
2016-11-25T15:53:16.471Z,0
2016-11-25T15:54:26.498Z,0
2016-11-25T15:55:36.843Z,0
2016-11-25T15:56:46.241Z,0
2016-11-25T15:57:56.576Z,0
2016-11-25T15:59:06.294Z,0
2016-11-25T16:00:16.640Z,0
2016-11-25T16:01:26.350Z,0
2016-11-25T16:02:36.695Z,0
2016-11-25T16:03:47.050Z,0
2016-11-25T16:04:57.397Z,0
2016-11-25T16:06:07.734Z,0
2016-11-25T16:07:17.765Z,0
2016-11-25T16:08:28.117Z,0
2016-11-25T16:09:37.850Z,0
2016-11-25T16:10:47.889Z,0
2016-11-25T16:11:58.231Z,0
2016-11-25T16:13:08.614Z,0
2016-11-25T16:14:18.335Z,0
2016-11-25T16:15:28.057Z,0
2016-11-25T16:16:38.405Z,0
2016-11-25T16:17:48.451Z,0
2016-11-25T16:18:58.795Z,0
2016-11-25T16:20:08.209Z,0
2016-11-25T16:21:18.576Z,0
2016-11-25T16:22:28.938Z,0
2016-11-25T16:23:39.007Z,0
2016-11-25T16:24:49.046Z,0
2016-11-25T16:25:59.397Z,0
2016-11-25T16:27:09.429Z,0
2016-11-25T16:28:19.462Z,0
2016-11-25T16:29:29.815Z,0
2016-11-25T16:30:39.865Z,0
2016-11-25T16:31:50.212Z,0
2016-11-25T16:33:00.240Z,0
2016-11-25T16:34:10.314Z,0
2016-11-25T16:35:20.052Z,0
2016-11-25T16:36:29.779Z,0
2016-11-25T16:37:39.827Z,0
2016-11-25T16:38:49.886Z,0
2016-11-25T16:40:00.239Z,0
2016-11-25T16:41:10.595Z,0
2016-11-25T16:42:20.645Z,0
2016-11-25T16:43:30.990Z,0
2016-11-25T16:44:41.024Z,0
2016-11-25T16:45:51.082Z,0
2016-11-25T16:47:00.174Z,0
2016-11-25T16:48:10.511Z,0
2016-11-25T16:49:20.853Z,0
2016-11-25T16:50:30.894Z,0
2016-11-25T16:51:41.252Z,0
2016-11-25T16:52:51.288Z,0
2016-11-25T16:54:01.643Z,0
2016-11-25T16:55:12.019Z,0
2016-11-25T16:56:22.380Z,0
2016-11-25T16:57:32.971Z,0
2016-11-25T16:58:43.325Z,0
2016-11-25T16:59:53.688Z,0
2016-11-25T17:01:04.038Z,0
2016-11-25T17:02:13.772Z,0
2016-11-25T17:03:23.795Z,0
2016-11-25T17:04:33.841Z,0
2016-11-25T17:05:44.194Z,0
2016-11-25T17:06:53.928Z,0
2016-11-25T17:08:04.265Z,0
2016-11-25T17:09:14.847Z,0
2016-11-25T17:10:24.878Z,0
2016-11-25T17:11:34.596Z,0
2016-11-25T17:12:44.933Z,0
2016-11-25T17:13:54.677Z,0
2016-11-25T17:15:05.046Z,0
2016-11-25T17:16:15.112Z,0
2016-11-25T17:17:25.149Z,0
2016-11-25T17:18:35.478Z,0
2016-11-25T17:19:45.507Z,0
2016-11-25T17:20:55.530Z,0
2016-11-25T17:22:05.881Z,0
2016-11-25T17:23:15.898Z,0
2016-11-25T17:24:25.622Z,0
2016-11-25T17:25:35.333Z,0
2016-11-25T17:26:45.065Z,0
2016-11-25T17:27:55.100Z,0
2016-11-25T17:29:05.127Z,0
2016-11-25T17:30:15.162Z,0
2016-11-25T17:31:25.521Z,0
2016-11-25T17:32:35.555Z,0